sensor_id;sensor_type;location;lat;lon;timestamp;P1;durP1;ratioP1;P2;durP2;ratioP2
6751;SDS011;3413;47.680;9.166;2024-03-02T00:04:50;11.70;;;4.60;;
6751;SDS011;3413;47.680;9.166;2024-03-02T00:09:54;10.97;;;4.90;;
6751;SDS011;3413;47.680;9.166;2024-03-02T00:14:56;13.50;;;5.30;;
6751;SDS011;3413;47.680;9.166;2024-03-02T00:20:04;13.60;;;5.10;;
6751;SDS011;3413;47.680;9.166;2024-03-02T00:25:12;10.10;;;5.13;;
6751;SDS011;3413;47.680;9.166;2024-03-02T00:35:53;12.33;;;5.63;;
6751;SDS011;3413;47.680;9.166;2024-03-02T00:41:01;11.60;;;6.03;;
6751;SDS011;3413;47.680;9.166;2024-03-02T00:46:15;14.83;;;6.40;;
6751;SDS011;3413;47.680;9.166;2024-03-02T00:51:21;14.20;;;5.80;;
6751;SDS011;3413;47.680;9.166;2024-03-02T00:56:33;13.03;;;5.43;;
6751;SDS011;3413;47.680;9.166;2024-03-02T01:01:38;13.17;;;6.33;;
6751;SDS011;3413;47.680;9.166;2024-03-02T01:06:42;13.10;;;5.37;;
6751;SDS011;3413;47.680;9.166;2024-03-02T01:11:45;14.90;;;6.40;;
6751;SDS011;3413;47.680;9.166;2024-03-02T01:16:48;12.73;;;5.77;;
6751;SDS011;3413;47.680;9.166;2024-03-02T01:21:51;14.00;;;6.27;;
6751;SDS011;3413;47.680;9.166;2024-03-02T01:26:54;18.97;;;7.27;;
6751;SDS011;3413;47.680;9.166;2024-03-02T01:31:58;17.10;;;6.33;;
6751;SDS011;3413;47.680;9.166;2024-03-02T01:37:01;16.83;;;6.70;;
6751;SDS011;3413;47.680;9.166;2024-03-02T01:42:03;17.73;;;7.80;;
6751;SDS011;3413;47.680;9.166;2024-03-02T01:47:07;18.93;;;7.60;;
6751;SDS011;3413;47.680;9.166;2024-03-02T01:52:11;17.73;;;6.80;;
6751;SDS011;3413;47.680;9.166;2024-03-02T01:57:15;23.80;;;8.40;;
6751;SDS011;3413;47.680;9.166;2024-03-02T02:02:19;25.87;;;7.90;;
6751;SDS011;3413;47.680;9.166;2024-03-02T02:07:22;28.53;;;8.57;;
6751;SDS011;3413;47.680;9.166;2024-03-02T02:12:25;20.63;;;8.40;;
6751;SDS011;3413;47.680;9.166;2024-03-02T02:17:28;21.07;;;7.77;;
6751;SDS011;3413;47.680;9.166;2024-03-02T02:22:31;28.50;;;8.47;;
6751;SDS011;3413;47.680;9.166;2024-03-02T02:27:33;39.23;;;9.10;;
6751;SDS011;3413;47.680;9.166;2024-03-02T02:32:37;31.97;;;8.60;;
6751;SDS011;3413;47.680;9.166;2024-03-02T02:37:41;39.80;;;8.37;;
6751;SDS011;3413;47.680;9.166;2024-03-02T02:42:44;26.70;;;8.03;;
6751;SDS011;3413;47.680;9.166;2024-03-02T02:47:47;21.63;;;7.87;;
6751;SDS011;3413;47.680;9.166;2024-03-02T02:52:50;28.17;;;8.40;;
6751;SDS011;3413;47.680;9.166;2024-03-02T02:57:53;47.70;;;8.30;;
6751;SDS011;3413;47.680;9.166;2024-03-02T03:02:56;29.80;;;7.53;;
6751;SDS011;3413;47.680;9.166;2024-03-02T03:07:59;39.17;;;7.60;;
6751;SDS011;3413;47.680;9.166;2024-03-02T03:13:01;37.57;;;7.80;;
6751;SDS011;3413;47.680;9.166;2024-03-02T03:18:04;21.13;;;7.93;;
6751;SDS011;3413;47.680;9.166;2024-03-02T03:23:08;34.73;;;7.80;;
6751;SDS011;3413;47.680;9.166;2024-03-02T03:28:10;31.77;;;6.90;;
6751;SDS011;3413;47.680;9.166;2024-03-02T03:33:13;30.90;;;8.37;;
6751;SDS011;3413;47.680;9.166;2024-03-02T03:38:15;20.13;;;7.53;;
6751;SDS011;3413;47.680;9.166;2024-03-02T03:43:17;20.87;;;7.83;;
6751;SDS011;3413;47.680;9.166;2024-03-02T03:48:19;19.00;;;7.03;;
6751;SDS011;3413;47.680;9.166;2024-03-02T03:53:21;19.90;;;7.10;;
6751;SDS011;3413;47.680;9.166;2024-03-02T03:58:23;19.33;;;6.57;;
6751;SDS011;3413;47.680;9.166;2024-03-02T04:03:25;31.93;;;7.80;;
6751;SDS011;3413;47.680;9.166;2024-03-02T04:08:27;29.77;;;8.07;;
6751;SDS011;3413;47.680;9.166;2024-03-02T04:13:29;26.87;;;7.03;;
6751;SDS011;3413;47.680;9.166;2024-03-02T04:18:31;22.20;;;7.20;;
6751;SDS011;3413;47.680;9.166;2024-03-02T04:23:36;16.33;;;6.67;;
6751;SDS011;3413;47.680;9.166;2024-03-02T04:28:38;32.03;;;7.53;;
6751;SDS011;3413;47.680;9.166;2024-03-02T04:33:40;54.67;;;7.17;;
6751;SDS011;3413;47.680;9.166;2024-03-02T04:38:42;23.63;;;6.17;;
6751;SDS011;3413;47.680;9.166;2024-03-02T04:43:44;32.27;;;7.70;;
6751;SDS011;3413;47.680;9.166;2024-03-02T04:48:45;25.90;;;8.00;;
6751;SDS011;3413;47.680;9.166;2024-03-02T04:53:47;35.50;;;6.73;;
6751;SDS011;3413;47.680;9.166;2024-03-02T04:58:49;32.07;;;6.83;;
6751;SDS011;3413;47.680;9.166;2024-03-02T05:03:51;14.83;;;6.07;;
6751;SDS011;3413;47.680;9.166;2024-03-02T05:08:53;16.07;;;6.40;;
6751;SDS011;3413;47.680;9.166;2024-03-02T05:13:55;22.17;;;7.33;;
6751;SDS011;3413;47.680;9.166;2024-03-02T05:18:57;14.70;;;6.87;;
6751;SDS011;3413;47.680;9.166;2024-03-02T05:23:59;18.60;;;6.43;;
6751;SDS011;3413;47.680;9.166;2024-03-02T05:29:01;16.37;;;6.70;;
6751;SDS011;3413;47.680;9.166;2024-03-02T05:34:04;20.20;;;7.00;;
6751;SDS011;3413;47.680;9.166;2024-03-02T05:39:06;16.00;;;6.87;;
6751;SDS011;3413;47.680;9.166;2024-03-02T05:44:10;14.80;;;6.90;;
6751;SDS011;3413;47.680;9.166;2024-03-02T05:49:12;23.80;;;7.70;;
6751;SDS011;3413;47.680;9.166;2024-03-02T05:54:14;19.97;;;8.30;;
6751;SDS011;3413;47.680;9.166;2024-03-02T05:59:16;24.83;;;6.80;;
6751;SDS011;3413;47.680;9.166;2024-03-02T06:04:18;18.10;;;7.90;;
6751;SDS011;3413;47.680;9.166;2024-03-02T06:09:20;19.77;;;7.03;;
6751;SDS011;3413;47.680;9.166;2024-03-02T06:14:22;20.00;;;8.90;;
6751;SDS011;3413;47.680;9.166;2024-03-02T06:19:24;24.63;;;8.67;;
6751;SDS011;3413;47.680;9.166;2024-03-02T06:24:26;19.50;;;7.80;;
6751;SDS011;3413;47.680;9.166;2024-03-02T06:29:28;21.80;;;7.43;;
6751;SDS011;3413;47.680;9.166;2024-03-02T06:34:30;23.30;;;7.47;;
6751;SDS011;3413;47.680;9.166;2024-03-02T06:39:31;48.53;;;7.97;;
6751;SDS011;3413;47.680;9.166;2024-03-02T06:44:35;20.20;;;7.00;;
6751;SDS011;3413;47.680;9.166;2024-03-02T06:49:37;24.00;;;5.90;;
6751;SDS011;3413;47.680;9.166;2024-03-02T06:54:39;18.20;;;6.47;;
6751;SDS011;3413;47.680;9.166;2024-03-02T06:59:41;19.33;;;6.43;;
6751;SDS011;3413;47.680;9.166;2024-03-02T07:04:43;14.87;;;6.20;;
6751;SDS011;3413;47.680;9.166;2024-03-02T07:09:46;23.90;;;6.00;;
6751;SDS011;3413;47.680;9.166;2024-03-02T07:14:49;22.20;;;6.90;;
6751;SDS011;3413;47.680;9.166;2024-03-02T07:20:06;13.23;;;6.23;;
6751;SDS011;3413;47.680;9.166;2024-03-02T07:25:08;15.17;;;6.53;;
6751;SDS011;3413;47.680;9.166;2024-03-02T07:30:30;19.23;;;6.50;;
6751;SDS011;3413;47.680;9.166;2024-03-02T07:35:34;15.10;;;5.93;;
6751;SDS011;3413;47.680;9.166;2024-03-02T07:40:36;18.77;;;6.43;;
6751;SDS011;3413;47.680;9.166;2024-03-02T07:45:38;12.87;;;6.20;;
6751;SDS011;3413;47.680;9.166;2024-03-02T07:50:40;27.80;;;6.50;;
6751;SDS011;3413;47.680;9.166;2024-03-02T07:55:42;20.73;;;6.10;;
6751;SDS011;3413;47.680;9.166;2024-03-02T08:00:44;31.87;;;6.60;;
6751;SDS011;3413;47.680;9.166;2024-03-02T08:05:47;29.43;;;5.90;;
6751;SDS011;3413;47.680;9.166;2024-03-02T08:10:48;22.80;;;7.30;;
6751;SDS011;3413;47.680;9.166;2024-03-02T08:15:50;43.33;;;7.50;;
6751;SDS011;3413;47.680;9.166;2024-03-02T08:20:52;17.50;;;7.27;;
6751;SDS011;3413;47.680;9.166;2024-03-02T08:25:54;29.77;;;7.90;;
6751;SDS011;3413;47.680;9.166;2024-03-02T08:30:56;34.73;;;6.70;;
6751;SDS011;3413;47.680;9.166;2024-03-02T08:35:58;21.27;;;7.83;;
6751;SDS011;3413;47.680;9.166;2024-03-02T08:41:01;20.10;;;7.57;;
6751;SDS011;3413;47.680;9.166;2024-03-02T08:46:03;22.40;;;8.90;;
6751;SDS011;3413;47.680;9.166;2024-03-02T08:51:05;18.50;;;7.13;;
6751;SDS011;3413;47.680;9.166;2024-03-02T08:56:09;23.20;;;7.73;;
6751;SDS011;3413;47.680;9.166;2024-03-02T09:01:11;15.60;;;7.53;;
6751;SDS011;3413;47.680;9.166;2024-03-02T09:06:13;16.93;;;7.77;;
6751;SDS011;3413;47.680;9.166;2024-03-02T09:11:18;16.73;;;7.10;;
6751;SDS011;3413;47.680;9.166;2024-03-02T09:16:20;16.93;;;6.40;;
6751;SDS011;3413;47.680;9.166;2024-03-02T09:21:22;22.97;;;7.40;;
6751;SDS011;3413;47.680;9.166;2024-03-02T09:26:24;19.30;;;8.53;;
6751;SDS011;3413;47.680;9.166;2024-03-02T09:31:26;21.20;;;8.80;;
6751;SDS011;3413;47.680;9.166;2024-03-02T09:36:28;19.87;;;7.83;;
6751;SDS011;3413;47.680;9.166;2024-03-02T09:41:30;19.40;;;7.87;;
6751;SDS011;3413;47.680;9.166;2024-03-02T09:46:34;12.27;;;6.50;;
6751;SDS011;3413;47.680;9.166;2024-03-02T09:51:40;17.97;;;8.00;;
6751;SDS011;3413;47.680;9.166;2024-03-02T09:56:47;24.30;;;7.17;;
6751;SDS011;3413;47.680;9.166;2024-03-02T10:12:14;11.77;;;6.23;;
6751;SDS011;3413;47.680;9.166;2024-03-02T10:17:17;13.77;;;5.27;;
6751;SDS011;3413;47.680;9.166;2024-03-02T10:22:22;13.77;;;5.47;;
6751;SDS011;3413;47.680;9.166;2024-03-02T10:27:26;14.03;;;5.43;;
6751;SDS011;3413;47.680;9.166;2024-03-02T10:32:29;22.30;;;7.87;;
6751;SDS011;3413;47.680;9.166;2024-03-02T10:37:31;10.67;;;5.83;;
6751;SDS011;3413;47.680;9.166;2024-03-02T10:42:33;11.57;;;5.60;;
6751;SDS011;3413;47.680;9.166;2024-03-02T10:47:37;9.80;;;4.73;;
6751;SDS011;3413;47.680;9.166;2024-03-02T10:52:40;11.87;;;5.57;;
6751;SDS011;3413;47.680;9.166;2024-03-02T10:57:42;11.67;;;5.60;;
6751;SDS011;3413;47.680;9.166;2024-03-02T11:02:59;13.33;;;5.73;;
6751;SDS011;3413;47.680;9.166;2024-03-02T11:08:16;12.40;;;5.50;;
6751;SDS011;3413;47.680;9.166;2024-03-02T11:13:30;13.23;;;5.03;;
6751;SDS011;3413;47.680;9.166;2024-03-02T11:18:33;13.30;;;5.60;;
6751;SDS011;3413;47.680;9.166;2024-03-02T11:23:36;9.57;;;4.90;;
6751;SDS011;3413;47.680;9.166;2024-03-02T11:28:38;8.63;;;5.03;;
6751;SDS011;3413;47.680;9.166;2024-03-02T11:33:40;12.93;;;4.63;;
6751;SDS011;3413;47.680;9.166;2024-03-02T11:38:43;8.90;;;4.63;;
6751;SDS011;3413;47.680;9.166;2024-03-02T11:43:47;9.37;;;3.57;;
6751;SDS011;3413;47.680;9.166;2024-03-02T11:48:50;8.60;;;3.63;;
6751;SDS011;3413;47.680;9.166;2024-03-02T11:53:52;10.93;;;4.57;;
6751;SDS011;3413;47.680;9.166;2024-03-02T11:58:57;10.80;;;4.53;;
6751;SDS011;3413;47.680;9.166;2024-03-02T12:03:59;14.53;;;5.23;;
6751;SDS011;3413;47.680;9.166;2024-03-02T12:09:01;11.47;;;4.27;;
6751;SDS011;3413;47.680;9.166;2024-03-02T12:14:03;8.57;;;4.33;;
6751;SDS011;3413;47.680;9.166;2024-03-02T12:19:05;11.23;;;4.50;;
6751;SDS011;3413;47.680;9.166;2024-03-02T12:24:07;11.47;;;4.60;;
6751;SDS011;3413;47.680;9.166;2024-03-02T12:29:09;9.67;;;4.70;;
6751;SDS011;3413;47.680;9.166;2024-03-02T12:34:13;10.20;;;4.63;;
6751;SDS011;3413;47.680;9.166;2024-03-02T12:39:16;16.83;;;5.17;;
6751;SDS011;3413;47.680;9.166;2024-03-02T12:44:19;12.70;;;4.70;;
6751;SDS011;3413;47.680;9.166;2024-03-02T12:49:21;10.97;;;4.97;;
6751;SDS011;3413;47.680;9.166;2024-03-02T12:54:24;8.80;;;4.47;;
6751;SDS011;3413;47.680;9.166;2024-03-02T12:59:26;10.67;;;3.93;;
6751;SDS011;3413;47.680;9.166;2024-03-02T13:04:29;10.10;;;4.33;;
6751;SDS011;3413;47.680;9.166;2024-03-02T13:09:32;9.30;;;4.30;;
6751;SDS011;3413;47.680;9.166;2024-03-02T13:14:35;7.43;;;4.10;;
6751;SDS011;3413;47.680;9.166;2024-03-02T13:19:37;9.00;;;4.30;;
6751;SDS011;3413;47.680;9.166;2024-03-02T13:24:39;6.37;;;3.30;;
6751;SDS011;3413;47.680;9.166;2024-03-02T13:29:44;10.43;;;3.80;;
6751;SDS011;3413;47.680;9.166;2024-03-02T13:34:45;8.37;;;3.60;;
6751;SDS011;3413;47.680;9.166;2024-03-02T13:39:51;8.10;;;3.50;;
6751;SDS011;3413;47.680;9.166;2024-03-02T13:44:53;8.30;;;3.87;;
6751;SDS011;3413;47.680;9.166;2024-03-02T13:49:55;7.90;;;3.10;;
6751;SDS011;3413;47.680;9.166;2024-03-02T13:54:57;8.90;;;3.80;;
6751;SDS011;3413;47.680;9.166;2024-03-02T13:59:59;11.27;;;2.90;;
6751;SDS011;3413;47.680;9.166;2024-03-02T14:05:01;7.57;;;2.80;;
6751;SDS011;3413;47.680;9.166;2024-03-02T14:10:03;5.90;;;3.20;;
6751;SDS011;3413;47.680;9.166;2024-03-02T14:15:06;4.13;;;1.90;;
6751;SDS011;3413;47.680;9.166;2024-03-02T14:20:08;4.37;;;1.77;;
6751;SDS011;3413;47.680;9.166;2024-03-02T14:25:15;2.80;;;2.03;;
6751;SDS011;3413;47.680;9.166;2024-03-02T14:30:17;3.17;;;2.00;;
6751;SDS011;3413;47.680;9.166;2024-03-02T14:35:19;4.13;;;1.80;;
6751;SDS011;3413;47.680;9.166;2024-03-02T14:40:24;3.80;;;1.70;;
6751;SDS011;3413;47.680;9.166;2024-03-02T14:45:28;2.43;;;1.70;;
6751;SDS011;3413;47.680;9.166;2024-03-02T14:50:30;4.20;;;2.23;;
6751;SDS011;3413;47.680;9.166;2024-03-02T14:55:32;5.07;;;2.50;;
6751;SDS011;3413;47.680;9.166;2024-03-02T15:00:35;3.00;;;1.90;;
6751;SDS011;3413;47.680;9.166;2024-03-02T15:05:37;3.67;;;1.87;;
6751;SDS011;3413;47.680;9.166;2024-03-02T15:10:40;3.90;;;2.00;;
6751;SDS011;3413;47.680;9.166;2024-03-02T15:15:45;4.50;;;2.23;;
6751;SDS011;3413;47.680;9.166;2024-03-02T15:20:48;3.80;;;1.57;;
6751;SDS011;3413;47.680;9.166;2024-03-02T15:25:49;3.70;;;1.70;;
6751;SDS011;3413;47.680;9.166;2024-03-02T15:30:51;4.37;;;2.20;;
6751;SDS011;3413;47.680;9.166;2024-03-02T15:36:00;3.30;;;2.23;;
6751;SDS011;3413;47.680;9.166;2024-03-02T15:41:03;4.17;;;2.40;;
6751;SDS011;3413;47.680;9.166;2024-03-02T15:46:05;5.17;;;2.53;;
6751;SDS011;3413;47.680;9.166;2024-03-02T15:51:08;7.97;;;2.77;;
6751;SDS011;3413;47.680;9.166;2024-03-02T15:56:10;7.00;;;2.77;;
6751;SDS011;3413;47.680;9.166;2024-03-02T16:01:12;6.30;;;2.70;;
6751;SDS011;3413;47.680;9.166;2024-03-02T16:06:14;5.17;;;3.10;;
6751;SDS011;3413;47.680;9.166;2024-03-02T16:11:16;10.67;;;3.53;;
6751;SDS011;3413;47.680;9.166;2024-03-02T16:16:18;4.63;;;2.50;;
6751;SDS011;3413;47.680;9.166;2024-03-02T16:21:20;6.77;;;2.20;;
6751;SDS011;3413;47.680;9.166;2024-03-02T16:26:26;10.80;;;3.20;;
6751;SDS011;3413;47.680;9.166;2024-03-02T16:31:28;25.33;;;4.23;;
6751;SDS011;3413;47.680;9.166;2024-03-02T16:36:30;7.03;;;3.83;;
6751;SDS011;3413;47.680;9.166;2024-03-02T16:41:34;5.10;;;2.40;;
6751;SDS011;3413;47.680;9.166;2024-03-02T16:46:36;5.20;;;2.33;;
6751;SDS011;3413;47.680;9.166;2024-03-02T16:51:40;4.57;;;2.50;;
6751;SDS011;3413;47.680;9.166;2024-03-02T16:56:43;4.07;;;2.47;;
6751;SDS011;3413;47.680;9.166;2024-03-02T17:01:45;4.80;;;2.70;;
6751;SDS011;3413;47.680;9.166;2024-03-02T17:06:47;9.23;;;4.07;;
6751;SDS011;3413;47.680;9.166;2024-03-02T17:11:49;8.00;;;4.07;;
6751;SDS011;3413;47.680;9.166;2024-03-02T17:16:51;8.00;;;4.20;;
6751;SDS011;3413;47.680;9.166;2024-03-02T17:21:54;5.07;;;2.83;;
6751;SDS011;3413;47.680;9.166;2024-03-02T17:26:56;6.53;;;2.70;;
6751;SDS011;3413;47.680;9.166;2024-03-02T17:31:59;12.87;;;3.37;;
6751;SDS011;3413;47.680;9.166;2024-03-02T17:37:01;10.43;;;2.83;;
6751;SDS011;3413;47.680;9.166;2024-03-02T17:42:04;15.37;;;7.13;;
6751;SDS011;3413;47.680;9.166;2024-03-02T17:47:06;13.60;;;5.67;;
6751;SDS011;3413;47.680;9.166;2024-03-02T17:52:08;26.73;;;8.20;;
6751;SDS011;3413;47.680;9.166;2024-03-02T17:57:10;11.47;;;4.90;;
6751;SDS011;3413;47.680;9.166;2024-03-02T18:02:12;12.10;;;4.83;;
6751;SDS011;3413;47.680;9.166;2024-03-02T18:07:14;13.70;;;4.97;;
6751;SDS011;3413;47.680;9.166;2024-03-02T18:12:16;18.00;;;5.40;;
6751;SDS011;3413;47.680;9.166;2024-03-02T18:17:18;9.50;;;4.03;;
6751;SDS011;3413;47.680;9.166;2024-03-02T18:22:20;9.77;;;3.83;;
6751;SDS011;3413;47.680;9.166;2024-03-02T18:27:22;7.50;;;3.00;;
6751;SDS011;3413;47.680;9.166;2024-03-02T18:32:24;7.40;;;3.23;;
6751;SDS011;3413;47.680;9.166;2024-03-02T18:37:26;6.87;;;3.30;;
6751;SDS011;3413;47.680;9.166;2024-03-02T18:42:28;6.13;;;2.80;;
6751;SDS011;3413;47.680;9.166;2024-03-02T18:47:31;6.50;;;2.60;;
6751;SDS011;3413;47.680;9.166;2024-03-02T18:52:33;7.27;;;3.23;;
6751;SDS011;3413;47.680;9.166;2024-03-02T18:57:37;7.70;;;3.60;;
6751;SDS011;3413;47.680;9.166;2024-03-02T19:02:39;47.23;;;8.87;;
6751;SDS011;3413;47.680;9.166;2024-03-02T19:07:42;29.80;;;10.00;;
6751;SDS011;3413;47.680;9.166;2024-03-02T19:12:44;15.47;;;5.20;;
6751;SDS011;3413;47.680;9.166;2024-03-02T19:17:49;9.80;;;4.53;;
6751;SDS011;3413;47.680;9.166;2024-03-02T19:22:53;9.27;;;3.90;;
6751;SDS011;3413;47.680;9.166;2024-03-02T19:27:56;6.73;;;2.67;;
6751;SDS011;3413;47.680;9.166;2024-03-02T19:32:58;10.60;;;3.80;;
6751;SDS011;3413;47.680;9.166;2024-03-02T19:38:00;26.70;;;8.80;;
6751;SDS011;3413;47.680;9.166;2024-03-02T19:43:01;27.40;;;9.77;;
6751;SDS011;3413;47.680;9.166;2024-03-02T19:48:04;16.17;;;7.07;;
6751;SDS011;3413;47.680;9.166;2024-03-02T19:53:06;29.93;;;10.13;;
6751;SDS011;3413;47.680;9.166;2024-03-02T19:58:08;5.97;;;3.13;;
6751;SDS011;3413;47.680;9.166;2024-03-02T20:03:11;30.40;;;11.73;;
6751;SDS011;3413;47.680;9.166;2024-03-02T20:08:13;7.93;;;3.60;;
6751;SDS011;3413;47.680;9.166;2024-03-02T20:13:15;6.80;;;3.30;;
6751;SDS011;3413;47.680;9.166;2024-03-02T20:18:17;8.70;;;3.23;;
6751;SDS011;3413;47.680;9.166;2024-03-02T20:23:20;4.97;;;2.80;;
6751;SDS011;3413;47.680;9.166;2024-03-02T20:28:21;5.70;;;3.47;;
6751;SDS011;3413;47.680;9.166;2024-03-02T20:33:23;3.67;;;2.17;;
6751;SDS011;3413;47.680;9.166;2024-03-02T20:38:26;4.37;;;2.40;;
6751;SDS011;3413;47.680;9.166;2024-03-02T20:43:29;6.70;;;2.73;;
6751;SDS011;3413;47.680;9.166;2024-03-02T20:48:31;4.70;;;2.80;;
6751;SDS011;3413;47.680;9.166;2024-03-02T20:53:34;6.33;;;3.40;;
6751;SDS011;3413;47.680;9.166;2024-03-02T20:58:38;5.20;;;2.40;;
6751;SDS011;3413;47.680;9.166;2024-03-02T21:03:50;8.10;;;3.03;;
6751;SDS011;3413;47.680;9.166;2024-03-02T21:08:58;4.87;;;2.87;;
6751;SDS011;3413;47.680;9.166;2024-03-02T21:14:00;10.33;;;2.90;;
6751;SDS011;3413;47.680;9.166;2024-03-02T21:19:05;7.87;;;3.17;;
6751;SDS011;3413;47.680;9.166;2024-03-02T21:24:09;9.10;;;3.50;;
6751;SDS011;3413;47.680;9.166;2024-03-02T21:47:55;11.43;;;2.77;;
6751;SDS011;3413;47.680;9.166;2024-03-02T21:53:04;6.67;;;3.30;;
6751;SDS011;3413;47.680;9.166;2024-03-02T21:58:18;10.50;;;3.77;;
6751;SDS011;3413;47.680;9.166;2024-03-02T22:03:35;4.13;;;2.27;;
6751;SDS011;3413;47.680;9.166;2024-03-02T22:08:46;3.83;;;2.20;;
6751;SDS011;3413;47.680;9.166;2024-03-02T22:14:17;4.73;;;2.60;;
6751;SDS011;3413;47.680;9.166;2024-03-02T22:19:25;6.73;;;3.00;;
6751;SDS011;3413;47.680;9.166;2024-03-02T22:24:40;8.87;;;3.70;;
6751;SDS011;3413;47.680;9.166;2024-03-02T22:30:04;6.80;;;3.20;;
6751;SDS011;3413;47.680;9.166;2024-03-02T22:35:10;7.73;;;2.70;;
6751;SDS011;3413;47.680;9.166;2024-03-02T22:40:35;4.17;;;2.60;;
6751;SDS011;3413;47.680;9.166;2024-03-02T22:45:52;5.80;;;2.80;;
6751;SDS011;3413;47.680;9.166;2024-03-02T22:51:09;3.70;;;2.43;;
6751;SDS011;3413;47.680;9.166;2024-03-02T22:56:17;3.67;;;2.10;;
6751;SDS011;3413;47.680;9.166;2024-03-02T23:01:25;6.47;;;3.03;;
6751;SDS011;3413;47.680;9.166;2024-03-02T23:07:09;5.87;;;2.50;;
6751;SDS011;3413;47.680;9.166;2024-03-02T23:12:14;5.80;;;2.60;;
6751;SDS011;3413;47.680;9.166;2024-03-02T23:17:21;12.87;;;2.73;;
6751;SDS011;3413;47.680;9.166;2024-03-02T23:22:25;10.80;;;3.63;;
6751;SDS011;3413;47.680;9.166;2024-03-02T23:27:30;7.20;;;3.47;;
6751;SDS011;3413;47.680;9.166;2024-03-02T23:32:35;6.87;;;2.90;;
6751;SDS011;3413;47.680;9.166;2024-03-02T23:37:38;5.93;;;3.33;;
6751;SDS011;3413;47.680;9.166;2024-03-02T23:42:45;14.43;;;3.37;;
6751;SDS011;3413;47.680;9.166;2024-03-02T23:47:51;5.30;;;2.40;;
6751;SDS011;3413;47.680;9.166;2024-03-02T23:52:55;4.30;;;2.60;;
6751;SDS011;3413;47.680;9.166;2024-03-02T23:58:02;11.23;;;3.23;;
